sensor_id;sensor_type;location;lat;lon;timestamp;pressure;altitude;pressure_sealevel;temperature;humidity
76460;BME280;65299;46.084;18.762;2023-11-22T00:00:36;100269.13;;;9.32;83.98
76460;BME280;65299;46.084;18.762;2023-11-22T00:03:37;100269.50;;;9.46;83.38
76460;BME280;65299;46.084;18.762;2023-11-22T00:06:37;100271.19;;;9.25;84.50
76460;BME280;65299;46.084;18.762;2023-11-22T00:09:38;100270.94;;;9.27;83.63
76460;BME280;65299;46.084;18.762;2023-11-22T00:12:38;100273.66;;;9.37;83.65
76460;BME280;65299;46.084;18.762;2023-11-22T00:15:39;100276.63;;;9.45;83.16
76460;BME280;65299;46.084;18.762;2023-11-22T00:18:39;100271.31;;;9.40;82.93
76460;BME280;65299;46.084;18.762;2023-11-22T00:21:40;100273.41;;;9.38;82.76
76460;BME280;65299;46.084;18.762;2023-11-22T00:24:41;100272.63;;;9.43;83.02
76460;BME280;65299;46.084;18.762;2023-11-22T00:27:42;100280.28;;;9.39;83.05
76460;BME280;65299;46.084;18.762;2023-11-22T00:30:42;100274.84;;;9.14;83.87
76460;BME280;65299;46.084;18.762;2023-11-22T00:33:43;100278.72;;;9.06;84.48
76460;BME280;65299;46.084;18.762;2023-11-22T00:36:43;100278.56;;;9.18;83.90
76460;BME280;65299;46.084;18.762;2023-11-22T00:39:44;100265.47;;;9.01;84.65
76460;BME280;65299;46.084;18.762;2023-11-22T00:42:45;100263.91;;;9.05;84.37
76460;BME280;65299;46.084;18.762;2023-11-22T00:45:45;100259.03;;;9.24;83.55
76460;BME280;65299;46.084;18.762;2023-11-22T00:48:45;100257.59;;;9.11;83.65
76460;BME280;65299;46.084;18.762;2023-11-22T00:51:46;100258.69;;;9.15;83.93
76460;BME280;65299;46.084;18.762;2023-11-22T00:54:48;100261.75;;;9.02;83.90
76460;BME280;65299;46.084;18.762;2023-11-22T00:57:48;100253.13;;;9.12;83.70
76460;BME280;65299;46.084;18.762;2023-11-22T01:00:48;100256.47;;;9.02;83.96
76460;BME280;65299;46.084;18.762;2023-11-22T01:03:49;100259.28;;;8.91;84.36
76460;BME280;65299;46.084;18.762;2023-11-22T01:06:49;100255.63;;;8.97;84.43
76460;BME280;65299;46.084;18.762;2023-11-22T01:09:50;100260.63;;;8.93;84.31
76460;BME280;65299;46.084;18.762;2023-11-22T01:12:50;100259.78;;;8.88;84.30
76460;BME280;65299;46.084;18.762;2023-11-22T01:15:51;100266.13;;;8.87;84.18
76460;BME280;65299;46.084;18.762;2023-11-22T01:18:51;100268.88;;;8.97;84.09
76460;BME280;65299;46.084;18.762;2023-11-22T01:21:52;100269.19;;;8.74;84.67
76460;BME280;65299;46.084;18.762;2023-11-22T01:24:53;100266.53;;;8.74;84.69
76460;BME280;65299;46.084;18.762;2023-11-22T01:27:53;100281.13;;;8.76;84.56
76460;BME280;65299;46.084;18.762;2023-11-22T01:30:54;100282.75;;;8.82;84.59
76460;BME280;65299;46.084;18.762;2023-11-22T01:33:55;100287.69;;;9.00;83.86
76460;BME280;65299;46.084;18.762;2023-11-22T01:36:56;100283.81;;;8.55;85.19
76460;BME280;65299;46.084;18.762;2023-11-22T01:39:56;100284.56;;;8.77;85.08
76460;BME280;65299;46.084;18.762;2023-11-22T01:43:00;100288.59;;;8.84;84.61
76460;BME280;65299;46.084;18.762;2023-11-22T01:46:03;100291.69;;;9.03;83.68
76460;BME280;65299;46.084;18.762;2023-11-22T01:49:03;100288.25;;;8.76;84.45
76460;BME280;65299;46.084;18.762;2023-11-22T01:52:04;100284.66;;;8.87;84.10
76460;BME280;65299;46.084;18.762;2023-11-22T01:55:05;100287.34;;;8.92;84.04
76460;BME280;65299;46.084;18.762;2023-11-22T01:58:06;100288.94;;;8.61;84.74
76460;BME280;65299;46.084;18.762;2023-11-22T02:01:07;100289.16;;;8.86;84.13
76460;BME280;65299;46.084;18.762;2023-11-22T02:04:12;100292.63;;;8.92;83.78
76460;BME280;65299;46.084;18.762;2023-11-22T02:07:12;100294.19;;;8.88;84.20
76460;BME280;65299;46.084;18.762;2023-11-22T02:10:13;100291.59;;;8.66;85.34
76460;BME280;65299;46.084;18.762;2023-11-22T02:13:13;100301.78;;;8.53;85.49
76460;BME280;65299;46.084;18.762;2023-11-22T02:16:13;100308.38;;;8.77;84.41
76460;BME280;65299;46.084;18.762;2023-11-22T02:19:16;100312.13;;;8.81;84.63
76460;BME280;65299;46.084;18.762;2023-11-22T02:22:16;100321.63;;;8.77;85.16
76460;BME280;65299;46.084;18.762;2023-11-22T02:25:17;100313.41;;;8.52;85.84
76460;BME280;65299;46.084;18.762;2023-11-22T02:28:17;100320.56;;;8.78;84.67
76460;BME280;65299;46.084;18.762;2023-11-22T02:31:18;100317.84;;;8.46;86.02
76460;BME280;65299;46.084;18.762;2023-11-22T02:34:18;100321.75;;;8.39;86.29
76460;BME280;65299;46.084;18.762;2023-11-22T02:37:19;100329.81;;;8.54;86.49
76460;BME280;65299;46.084;18.762;2023-11-22T02:40:21;100329.72;;;8.65;85.80
76460;BME280;65299;46.084;18.762;2023-11-22T02:43:22;100332.72;;;8.52;85.85
76460;BME280;65299;46.084;18.762;2023-11-22T02:46:23;100326.53;;;8.68;85.38
76460;BME280;65299;46.084;18.762;2023-11-22T02:49:23;100332.03;;;8.62;85.66
76460;BME280;65299;46.084;18.762;2023-11-22T02:52:24;100333.63;;;8.63;85.61
76460;BME280;65299;46.084;18.762;2023-11-22T02:55:25;100333.22;;;8.49;86.15
76460;BME280;65299;46.084;18.762;2023-11-22T02:58:30;100321.50;;;8.40;86.39
76460;BME280;65299;46.084;18.762;2023-11-22T03:01:31;100324.72;;;8.69;85.41
76460;BME280;65299;46.084;18.762;2023-11-22T03:04:31;100320.13;;;8.38;86.86
76460;BME280;65299;46.084;18.762;2023-11-22T03:07:31;100332.22;;;8.55;85.94
76460;BME280;65299;46.084;18.762;2023-11-22T03:10:33;100330.44;;;8.17;87.32
76460;BME280;65299;46.084;18.762;2023-11-22T03:13:33;100338.09;;;8.35;86.86
76460;BME280;65299;46.084;18.762;2023-11-22T03:16:33;100334.69;;;8.62;85.53
76460;BME280;65299;46.084;18.762;2023-11-22T03:19:34;100334.69;;;8.62;85.58
76460;BME280;65299;46.084;18.762;2023-11-22T03:22:34;100341.13;;;8.49;86.11
76460;BME280;65299;46.084;18.762;2023-11-22T03:25:35;100340.28;;;8.65;85.33
76460;BME280;65299;46.084;18.762;2023-11-22T03:28:35;100341.84;;;8.40;86.63
76460;BME280;65299;46.084;18.762;2023-11-22T03:31:36;100342.78;;;8.55;86.39
76460;BME280;65299;46.084;18.762;2023-11-22T03:34:36;100342.94;;;8.65;85.73
76460;BME280;65299;46.084;18.762;2023-11-22T03:37:37;100343.13;;;8.59;85.61
76460;BME280;65299;46.084;18.762;2023-11-22T03:40:38;100339.75;;;8.63;85.80
76460;BME280;65299;46.084;18.762;2023-11-22T03:43:38;100357.44;;;8.63;85.85
76460;BME280;65299;46.084;18.762;2023-11-22T03:46:39;100367.25;;;8.41;85.94
76460;BME280;65299;46.084;18.762;2023-11-22T03:49:39;100364.84;;;8.61;85.97
76460;BME280;65299;46.084;18.762;2023-11-22T03:52:39;100366.59;;;8.55;86.08
76460;BME280;65299;46.084;18.762;2023-11-22T03:55:40;100358.00;;;8.65;85.53
76460;BME280;65299;46.084;18.762;2023-11-22T03:58:41;100366.41;;;8.62;85.61
76460;BME280;65299;46.084;18.762;2023-11-22T04:01:41;100366.38;;;8.57;85.81
76460;BME280;65299;46.084;18.762;2023-11-22T04:04:41;100368.44;;;8.33;86.81
76460;BME280;65299;46.084;18.762;2023-11-22T04:07:42;100375.94;;;8.19;87.60
76460;BME280;65299;46.084;18.762;2023-11-22T04:10:42;100380.56;;;8.29;87.41
76460;BME280;65299;46.084;18.762;2023-11-22T04:13:42;100383.47;;;8.27;88.00
76460;BME280;65299;46.084;18.762;2023-11-22T04:16:43;100387.19;;;7.93;88.63
76460;BME280;65299;46.084;18.762;2023-11-22T04:19:43;100389.94;;;7.65;89.69
76460;BME280;65299;46.084;18.762;2023-11-22T04:22:44;100387.88;;;7.84;89.30
76460;BME280;65299;46.084;18.762;2023-11-22T04:25:47;100390.41;;;7.95;89.25
76460;BME280;65299;46.084;18.762;2023-11-22T04:28:49;100394.06;;;7.94;88.14
76460;BME280;65299;46.084;18.762;2023-11-22T04:31:50;100404.31;;;8.07;88.38
76460;BME280;65299;46.084;18.762;2023-11-22T04:34:50;100411.44;;;7.90;88.77
76460;BME280;65299;46.084;18.762;2023-11-22T04:37:50;100412.97;;;7.86;88.35
76460;BME280;65299;46.084;18.762;2023-11-22T04:40:51;100427.16;;;7.80;87.76
76460;BME280;65299;46.084;18.762;2023-11-22T04:43:51;100429.03;;;7.80;87.70
76460;BME280;65299;46.084;18.762;2023-11-22T04:46:52;100436.03;;;7.91;87.70
76460;BME280;65299;46.084;18.762;2023-11-22T04:49:52;100439.63;;;7.51;88.47
76460;BME280;65299;46.084;18.762;2023-11-22T04:52:53;100445.03;;;7.90;88.06
76460;BME280;65299;46.084;18.762;2023-11-22T04:55:53;100448.28;;;7.80;87.82
76460;BME280;65299;46.084;18.762;2023-11-22T04:58:54;100444.53;;;7.93;87.70
76460;BME280;65299;46.084;18.762;2023-11-22T05:01:54;100446.09;;;7.44;88.60
76460;BME280;65299;46.084;18.762;2023-11-22T05:04:54;100465.09;;;7.57;87.90
76460;BME280;65299;46.084;18.762;2023-11-22T05:07:55;100460.38;;;7.76;87.43
76460;BME280;65299;46.084;18.762;2023-11-22T05:10:55;100452.47;;;7.93;86.60
76460;BME280;65299;46.084;18.762;2023-11-22T05:13:56;100462.63;;;7.84;86.63
76460;BME280;65299;46.084;18.762;2023-11-22T05:16:56;100456.56;;;7.84;86.63
76460;BME280;65299;46.084;18.762;2023-11-22T05:19:57;100462.22;;;7.59;87.41
76460;BME280;65299;46.084;18.762;2023-11-22T05:22:57;100467.19;;;7.72;86.92
76460;BME280;65299;46.084;18.762;2023-11-22T05:25:58;100468.97;;;7.83;87.01
76460;BME280;65299;46.084;18.762;2023-11-22T05:29:00;100472.16;;;7.85;87.34
76460;BME280;65299;46.084;18.762;2023-11-22T05:32:02;100480.38;;;7.72;87.97
76460;BME280;65299;46.084;18.762;2023-11-22T05:35:03;100488.81;;;7.69;87.80
76460;BME280;65299;46.084;18.762;2023-11-22T05:38:06;100495.66;;;7.53;88.41
76460;BME280;65299;46.084;18.762;2023-11-22T05:41:07;100506.28;;;7.42;88.49
76460;BME280;65299;46.084;18.762;2023-11-22T05:44:07;100510.78;;;7.58;88.21
76460;BME280;65299;46.084;18.762;2023-11-22T05:47:08;100519.59;;;7.47;88.33
76460;BME280;65299;46.084;18.762;2023-11-22T05:50:09;100524.88;;;7.47;88.37
76460;BME280;65299;46.084;18.762;2023-11-22T05:53:09;100526.63;;;7.58;87.29
76460;BME280;65299;46.084;18.762;2023-11-22T05:56:11;100529.00;;;7.43;88.09
76460;BME280;65299;46.084;18.762;2023-11-22T05:59:11;100532.03;;;7.35;88.31
76460;BME280;65299;46.084;18.762;2023-11-22T06:02:12;100531.91;;;7.58;87.33
76460;BME280;65299;46.084;18.762;2023-11-22T06:05:13;100539.00;;;7.41;88.21
76460;BME280;65299;46.084;18.762;2023-11-22T06:08:13;100550.31;;;7.53;87.85
76460;BME280;65299;46.084;18.762;2023-11-22T06:11:14;100565.72;;;7.16;89.15
76460;BME280;65299;46.084;18.762;2023-11-22T06:14:15;100562.09;;;7.62;87.80
76460;BME280;65299;46.084;18.762;2023-11-22T06:17:16;100557.19;;;7.54;87.59
76460;BME280;65299;46.084;18.762;2023-11-22T06:20:16;100566.81;;;7.32;88.69
76460;BME280;65299;46.084;18.762;2023-11-22T06:23:17;100580.16;;;7.53;87.94
76460;BME280;65299;46.084;18.762;2023-11-22T06:26:18;100587.19;;;7.48;87.79
76460;BME280;65299;46.084;18.762;2023-11-22T06:29:18;100595.84;;;7.32;88.99
76460;BME280;65299;46.084;18.762;2023-11-22T06:32:18;100600.78;;;7.28;89.48
76460;BME280;65299;46.084;18.762;2023-11-22T06:35:19;100608.44;;;7.53;88.22
76460;BME280;65299;46.084;18.762;2023-11-22T06:38:19;100612.56;;;7.49;88.12
76460;BME280;65299;46.084;18.762;2023-11-22T06:41:20;100618.25;;;7.69;87.32
76460;BME280;65299;46.084;18.762;2023-11-22T06:44:21;100621.06;;;7.51;87.30
76460;BME280;65299;46.084;18.762;2023-11-22T06:47:22;100628.66;;;7.36;88.18
76460;BME280;65299;46.084;18.762;2023-11-22T06:50:23;100640.69;;;7.55;87.65
76460;BME280;65299;46.084;18.762;2023-11-22T06:53:24;100642.91;;;7.35;88.37
76460;BME280;65299;46.084;18.762;2023-11-22T06:56:26;100659.00;;;7.22;88.50
76460;BME280;65299;46.084;18.762;2023-11-22T06:59:26;100668.28;;;7.24;88.78
76460;BME280;65299;46.084;18.762;2023-11-22T07:02:27;100670.75;;;7.54;87.38
76460;BME280;65299;46.084;18.762;2023-11-22T07:05:27;100670.50;;;7.55;86.40
76460;BME280;65299;46.084;18.762;2023-11-22T07:08:30;100670.75;;;7.54;86.74
76460;BME280;65299;46.084;18.762;2023-11-22T07:11:31;100672.84;;;7.40;86.51
76460;BME280;65299;46.084;18.762;2023-11-22T07:14:31;100674.41;;;7.65;86.54
76460;BME280;65299;46.084;18.762;2023-11-22T07:17:32;100682.69;;;7.57;86.39
76460;BME280;65299;46.084;18.762;2023-11-22T07:20:33;100681.22;;;7.37;87.23
76460;BME280;65299;46.084;18.762;2023-11-22T07:23:34;100680.66;;;7.35;86.94
76460;BME280;65299;46.084;18.762;2023-11-22T07:26:34;100689.72;;;7.51;86.62
76460;BME280;65299;46.084;18.762;2023-11-22T07:29:34;100691.16;;;7.70;86.15
76460;BME280;65299;46.084;18.762;2023-11-22T07:32:35;100694.22;;;7.16;87.34
76460;BME280;65299;46.084;18.762;2023-11-22T07:35:36;100692.03;;;7.36;87.42
76460;BME280;65299;46.084;18.762;2023-11-22T07:38:36;100702.00;;;7.34;87.17
76460;BME280;65299;46.084;18.762;2023-11-22T07:41:37;100703.88;;;7.22;86.80
76460;BME280;65299;46.084;18.762;2023-11-22T07:44:37;100711.09;;;7.26;87.41
76460;BME280;65299;46.084;18.762;2023-11-22T07:47:38;100710.88;;;7.16;87.40
76460;BME280;65299;46.084;18.762;2023-11-22T07:50:41;100713.28;;;7.41;86.53
76460;BME280;65299;46.084;18.762;2023-11-22T07:53:45;100711.31;;;7.36;86.60
76460;BME280;65299;46.084;18.762;2023-11-22T07:56:45;100711.44;;;7.18;86.88
76460;BME280;65299;46.084;18.762;2023-11-22T07:59:47;100713.38;;;7.23;87.25
76460;BME280;65299;46.084;18.762;2023-11-22T08:02:47;100712.56;;;7.34;86.86
76460;BME280;65299;46.084;18.762;2023-11-22T08:05:48;100709.94;;;7.34;86.86
76460;BME280;65299;46.084;18.762;2023-11-22T08:08:49;100707.53;;;7.09;87.58
76460;BME280;65299;46.084;18.762;2023-11-22T08:11:49;100714.31;;;7.28;87.17
76460;BME280;65299;46.084;18.762;2023-11-22T08:14:49;100720.06;;;7.37;87.02
76460;BME280;65299;46.084;18.762;2023-11-22T08:17:51;100725.53;;;7.47;86.89
76460;BME280;65299;46.084;18.762;2023-11-22T08:20:51;100728.28;;;7.29;86.10
76460;BME280;65299;46.084;18.762;2023-11-22T08:23:52;100739.22;;;7.32;86.99
76460;BME280;65299;46.084;18.762;2023-11-22T08:26:53;100757.09;;;7.53;86.15
76460;BME280;65299;46.084;18.762;2023-11-22T08:29:53;100758.81;;;7.25;86.53
76460;BME280;65299;46.084;18.762;2023-11-22T08:32:55;100761.94;;;7.22;87.50
76460;BME280;65299;46.084;18.762;2023-11-22T08:35:55;100764.91;;;7.48;86.55
76460;BME280;65299;46.084;18.762;2023-11-22T08:39:00;100763.66;;;7.39;86.72
76460;BME280;65299;46.084;18.762;2023-11-22T08:42:01;100765.00;;;7.19;87.29
76460;BME280;65299;46.084;18.762;2023-11-22T08:45:03;100763.19;;;7.42;86.78
76460;BME280;65299;46.084;18.762;2023-11-22T08:48:04;100762.28;;;7.48;86.16
76460;BME280;65299;46.084;18.762;2023-11-22T08:51:04;100768.03;;;7.57;86.24
76460;BME280;65299;46.084;18.762;2023-11-22T08:54:05;100772.47;;;7.68;85.26
76460;BME280;65299;46.084;18.762;2023-11-22T08:57:05;100784.88;;;7.56;85.66
76460;BME280;65299;46.084;18.762;2023-11-22T09:00:06;100783.63;;;7.59;85.75
76460;BME280;65299;46.084;18.762;2023-11-22T09:03:09;100789.00;;;7.64;84.96
76460;BME280;65299;46.084;18.762;2023-11-22T09:06:12;100795.09;;;7.64;85.02
76460;BME280;65299;46.084;18.762;2023-11-22T09:09:13;100784.09;;;7.67;85.05
76460;BME280;65299;46.084;18.762;2023-11-22T09:12:15;100793.72;;;7.73;84.60
76460;BME280;65299;46.084;18.762;2023-11-22T09:15:16;100797.88;;;7.69;84.86
76460;BME280;65299;46.084;18.762;2023-11-22T09:18:17;100794.06;;;7.77;84.87
76460;BME280;65299;46.084;18.762;2023-11-22T09:21:18;100794.88;;;7.42;85.48
76460;BME280;65299;46.084;18.762;2023-11-22T09:24:18;100791.28;;;7.72;84.68
76460;BME280;65299;46.084;18.762;2023-11-22T09:27:19;100795.66;;;7.89;83.74
76460;BME280;65299;46.084;18.762;2023-11-22T09:30:22;100802.44;;;7.85;84.72
76460;BME280;65299;46.084;18.762;2023-11-22T09:33:35;100807.56;;;8.03;83.74
76460;BME280;65299;46.084;18.762;2023-11-22T09:36:35;100808.22;;;7.59;84.96
76460;BME280;65299;46.084;18.762;2023-11-22T09:39:37;100813.47;;;7.94;83.96
76460;BME280;65299;46.084;18.762;2023-11-22T09:42:39;100819.88;;;8.09;83.32
76460;BME280;65299;46.084;18.762;2023-11-22T09:45:41;100816.88;;;8.06;83.17
76460;BME280;65299;46.084;18.762;2023-11-22T09:48:42;100834.78;;;8.15;82.66
76460;BME280;65299;46.084;18.762;2023-11-22T09:51:47;100823.44;;;8.03;83.00
76460;BME280;65299;46.084;18.762;2023-11-22T09:54:50;100827.72;;;7.81;83.20
76460;BME280;65299;46.084;18.762;2023-11-22T09:57:51;100838.19;;;7.65;83.93
76460;BME280;65299;46.084;18.762;2023-11-22T10:00:54;100831.38;;;7.80;83.42
76460;BME280;65299;46.084;18.762;2023-11-22T10:03:55;100829.44;;;7.87;83.71
76460;BME280;65299;46.084;18.762;2023-11-22T10:06:57;100832.16;;;8.15;82.86
76460;BME280;65299;46.084;18.762;2023-11-22T10:09:58;100836.81;;;7.74;83.34
76460;BME280;65299;46.084;18.762;2023-11-22T10:13:02;100845.06;;;7.66;84.03
76460;BME280;65299;46.084;18.762;2023-11-22T10:16:11;100848.63;;;7.71;84.09
76460;BME280;65299;46.084;18.762;2023-11-22T10:19:12;100845.19;;;7.94;82.62
76460;BME280;65299;46.084;18.762;2023-11-22T10:22:14;100846.91;;;8.00;82.40
76460;BME280;65299;46.084;18.762;2023-11-22T10:25:17;100853.88;;;7.94;82.94
76460;BME280;65299;46.084;18.762;2023-11-22T10:28:26;100871.47;;;8.00;82.35
76460;BME280;65299;46.084;18.762;2023-11-22T10:31:28;100872.41;;;7.71;83.33
76460;BME280;65299;46.084;18.762;2023-11-22T10:34:29;100871.34;;;7.72;83.28
76460;BME280;65299;46.084;18.762;2023-11-22T10:37:29;100877.34;;;7.91;82.93
76460;BME280;65299;46.084;18.762;2023-11-22T10:40:30;100880.09;;;8.07;82.23
76460;BME280;65299;46.084;18.762;2023-11-22T10:43:30;100882.84;;;7.89;82.64
76460;BME280;65299;46.084;18.762;2023-11-22T10:46:36;100881.00;;;8.01;81.79
76460;BME280;65299;46.084;18.762;2023-11-22T10:49:39;100887.78;;;7.74;82.39
76460;BME280;65299;46.084;18.762;2023-11-22T10:52:41;100896.63;;;8.03;81.90
76460;BME280;65299;46.084;18.762;2023-11-22T10:55:45;100890.31;;;7.92;82.25
76460;BME280;65299;46.084;18.762;2023-11-22T10:58:47;100891.81;;;8.11;81.12
76460;BME280;65299;46.084;18.762;2023-11-22T11:01:49;100902.97;;;8.37;80.50
76460;BME280;65299;46.084;18.762;2023-11-22T11:05:03;100899.13;;;8.21;81.04
76460;BME280;65299;46.084;18.762;2023-11-22T11:08:13;100899.88;;;7.82;81.93
76460;BME280;65299;46.084;18.762;2023-11-22T11:11:17;100901.34;;;8.24;81.67
76460;BME280;65299;46.084;18.762;2023-11-22T11:14:18;100901.34;;;8.24;80.58
76460;BME280;65299;46.084;18.762;2023-11-22T11:17:19;100917.56;;;8.16;80.78
76460;BME280;65299;46.084;18.762;2023-11-22T11:20:22;100902.59;;;7.98;81.13
76460;BME280;65299;46.084;18.762;2023-11-22T11:23:27;100906.16;;;8.15;81.06
76460;BME280;65299;46.084;18.762;2023-11-22T11:26:28;100913.63;;;8.07;81.38
76460;BME280;65299;46.084;18.762;2023-11-22T11:29:36;100913.88;;;8.40;80.40
76460;BME280;65299;46.084;18.762;2023-11-22T11:32:40;100911.22;;;8.40;80.07
76460;BME280;65299;46.084;18.762;2023-11-22T11:35:49;100914.41;;;8.65;78.56
76460;BME280;65299;46.084;18.762;2023-11-22T11:38:57;100918.44;;;8.56;78.37
76460;BME280;65299;46.084;18.762;2023-11-22T11:42:16;100911.91;;;8.35;79.25
76460;BME280;65299;46.084;18.762;2023-11-22T11:45:16;100912.25;;;8.51;79.43
76460;BME280;65299;46.084;18.762;2023-11-22T11:48:17;100912.09;;;8.57;79.97
76460;BME280;65299;46.084;18.762;2023-11-22T11:51:25;100916.34;;;8.58;78.87
76460;BME280;65299;46.084;18.762;2023-11-22T11:54:26;100915.78;;;8.56;79.36
76460;BME280;65299;46.084;18.762;2023-11-22T11:57:30;100915.41;;;8.64;78.71
76460;BME280;65299;46.084;18.762;2023-11-22T12:00:31;100938.44;;;8.92;78.61
76460;BME280;65299;46.084;18.762;2023-11-22T12:03:31;100923.03;;;8.61;78.71
76460;BME280;65299;46.084;18.762;2023-11-22T12:06:32;100931.09;;;8.54;78.45
76460;BME280;65299;46.084;18.762;2023-11-22T12:09:36;100947.06;;;8.99;77.75
76460;BME280;65299;46.084;18.762;2023-11-22T12:12:37;100949.69;;;8.71;78.02
76460;BME280;65299;46.084;18.762;2023-11-22T12:15:39;100936.78;;;8.74;77.78
76460;BME280;65299;46.084;18.762;2023-11-22T12:18:44;100942.72;;;9.21;77.04
76460;BME280;65299;46.084;18.762;2023-11-22T12:21:45;100946.34;;;8.75;77.25
76460;BME280;65299;46.084;18.762;2023-11-22T12:24:46;100945.22;;;8.71;76.54
76460;BME280;65299;46.084;18.762;2023-11-22T12:27:46;100954.75;;;9.00;75.99
76460;BME280;65299;46.084;18.762;2023-11-22T12:30:47;100954.44;;;8.97;75.90
76460;BME280;65299;46.084;18.762;2023-11-22T12:33:48;100961.31;;;8.98;76.05
76460;BME280;65299;46.084;18.762;2023-11-22T12:36:49;100960.44;;;9.20;76.52
76460;BME280;65299;46.084;18.762;2023-11-22T12:39:50;100958.13;;;9.24;75.28
76460;BME280;65299;46.084;18.762;2023-11-22T12:42:53;100959.31;;;9.61;74.38
76460;BME280;65299;46.084;18.762;2023-11-22T12:46:04;100977.06;;;9.61;74.47
76460;BME280;65299;46.084;18.762;2023-11-22T12:49:07;100973.28;;;9.29;74.17
76460;BME280;65299;46.084;18.762;2023-11-22T12:52:07;100980.28;;;9.35;74.37
76460;BME280;65299;46.084;18.762;2023-11-22T12:55:09;100974.56;;;9.54;73.74
76460;BME280;65299;46.084;18.762;2023-11-22T12:58:09;100980.28;;;9.35;74.84
76460;BME280;65299;46.084;18.762;2023-11-22T13:01:10;100968.00;;;9.57;74.07
76460;BME280;65299;46.084;18.762;2023-11-22T13:04:11;100968.72;;;9.69;74.28
76460;BME280;65299;46.084;18.762;2023-11-22T13:07:14;100974.75;;;9.81;73.12
76460;BME280;65299;46.084;18.762;2023-11-22T13:10:15;100978.81;;;9.55;73.36
76460;BME280;65299;46.084;18.762;2023-11-22T13:13:16;100973.34;;;9.45;72.98
76460;BME280;65299;46.084;18.762;2023-11-22T13:16:17;100977.53;;;9.58;74.04
76460;BME280;65299;46.084;18.762;2023-11-22T13:19:18;100984.47;;;9.59;73.95
76460;BME280;65299;46.084;18.762;2023-11-22T13:22:19;100992.34;;;9.70;72.64
76460;BME280;65299;46.084;18.762;2023-11-22T13:25:20;101002.44;;;9.57;72.77
76460;BME280;65299;46.084;18.762;2023-11-22T13:28:21;101015.34;;;9.53;73.58
76460;BME280;65299;46.084;18.762;2023-11-22T13:31:22;101011.53;;;9.77;72.81
76460;BME280;65299;46.084;18.762;2023-11-22T13:34:22;101022.69;;;9.79;72.97
76460;BME280;65299;46.084;18.762;2023-11-22T13:37:23;101022.28;;;9.71;72.92
76460;BME280;65299;46.084;18.762;2023-11-22T13:40:24;101015.91;;;9.55;73.01
76460;BME280;65299;46.084;18.762;2023-11-22T13:43:27;101029.19;;;9.72;72.33
76460;BME280;65299;46.084;18.762;2023-11-22T13:46:27;101032.25;;;9.80;71.54
76460;BME280;65299;46.084;18.762;2023-11-22T13:49:28;101036.13;;;9.73;71.58
76460;BME280;65299;46.084;18.762;2023-11-22T13:52:28;101043.69;;;9.53;71.94
76460;BME280;65299;46.084;18.762;2023-11-22T13:55:30;101051.22;;;9.72;71.27
76460;BME280;65299;46.084;18.762;2023-11-22T13:58:30;101061.88;;;9.77;71.60
76460;BME280;65299;46.084;18.762;2023-11-22T14:01:32;101059.66;;;9.86;71.63
76460;BME280;65299;46.084;18.762;2023-11-22T14:04:33;101072.31;;;9.95;71.42
76460;BME280;65299;46.084;18.762;2023-11-22T14:07:35;101077.59;;;9.95;70.85
76460;BME280;65299;46.084;18.762;2023-11-22T14:10:36;101081.69;;;9.86;70.68
76460;BME280;65299;46.084;18.762;2023-11-22T14:13:36;101084.78;;;9.83;71.39
76460;BME280;65299;46.084;18.762;2023-11-22T14:16:36;101083.66;;;9.79;71.30
76460;BME280;65299;46.084;18.762;2023-11-22T14:19:39;101093.56;;;9.84;71.48
76460;BME280;65299;46.084;18.762;2023-11-22T14:22:40;101093.69;;;10.06;71.66
76460;BME280;65299;46.084;18.762;2023-11-22T14:25:42;101099.56;;;9.51;75.13
76460;BME280;65299;46.084;18.762;2023-11-22T14:28:43;101092.34;;;9.75;75.78
76460;BME280;65299;46.084;18.762;2023-11-22T14:31:43;101102.13;;;9.74;76.60
76460;BME280;65299;46.084;18.762;2023-11-22T14:34:45;101093.03;;;9.42;77.68
76460;BME280;65299;46.084;18.762;2023-11-22T14:37:45;101094.75;;;9.48;77.43
76460;BME280;65299;46.084;18.762;2023-11-22T14:40:46;101103.63;;;9.42;78.10
76460;BME280;65299;46.084;18.762;2023-11-22T14:43:46;101112.53;;;9.36;77.83
76460;BME280;65299;46.084;18.762;2023-11-22T14:46:47;101123.78;;;9.43;76.98
76460;BME280;65299;46.084;18.762;2023-11-22T14:49:50;101121.97;;;9.32;77.28
76460;BME280;65299;46.084;18.762;2023-11-22T14:52:50;101122.56;;;9.34;76.91
76460;BME280;65299;46.084;18.762;2023-11-22T14:55:50;101120.69;;;9.35;76.41
76460;BME280;65299;46.084;18.762;2023-11-22T14:58:51;101131.22;;;9.18;76.28
76460;BME280;65299;46.084;18.762;2023-11-22T15:01:54;101128.78;;;9.28;76.05
76460;BME280;65299;46.084;18.762;2023-11-22T15:04:55;101132.50;;;9.04;76.58
76460;BME280;65299;46.084;18.762;2023-11-22T15:07:56;101130.19;;;8.96;76.29
76460;BME280;65299;46.084;18.762;2023-11-22T15:10:57;101136.97;;;8.92;75.96
76460;BME280;65299;46.084;18.762;2023-11-22T15:13:57;101143.19;;;8.86;76.13
76460;BME280;65299;46.084;18.762;2023-11-22T15:16:58;101153.91;;;8.79;76.14
76460;BME280;65299;46.084;18.762;2023-11-22T15:20:01;101147.69;;;8.62;75.78
76460;BME280;65299;46.084;18.762;2023-11-22T15:23:01;101156.28;;;8.58;75.83
76460;BME280;65299;46.084;18.762;2023-11-22T15:26:03;101160.56;;;8.59;75.72
76460;BME280;65299;46.084;18.762;2023-11-22T15:29:04;101168.34;;;8.42;75.14
76460;BME280;65299;46.084;18.762;2023-11-22T15:32:06;101169.63;;;8.51;75.25
76460;BME280;65299;46.084;18.762;2023-11-22T15:35:07;101150.75;;;8.48;74.93
76460;BME280;65299;46.084;18.762;2023-11-22T15:38:08;101169.94;;;8.31;74.81
76460;BME280;65299;46.084;18.762;2023-11-22T15:41:09;101169.06;;;8.19;74.94
76460;BME280;65299;46.084;18.762;2023-11-22T15:44:10;101172.28;;;8.21;75.15
76460;BME280;65299;46.084;18.762;2023-11-22T15:47:12;101167.16;;;8.08;75.25